createdAt,value
2022-11-30T08:08:23.909Z,60.00
2022-11-30T08:12:03.768Z,60.37
2022-11-30T08:15:19.319Z,60.40
2022-11-30T08:17:52.153Z,60.25
2022-11-30T08:20:22.454Z,60.33
2022-11-30T08:22:56.962Z,60.11
2022-11-30T08:25:25.773Z,60.30
2022-11-30T08:28:11.394Z,60.55
2022-11-30T08:30:41.985Z,60.01
2022-11-30T08:33:21.440Z,60.12
2022-11-30T08:35:59.713Z,60.65
2022-11-30T08:38:35.087Z,60.15
2022-11-30T08:41:19.565Z,60.03
2022-11-30T08:43:59.697Z,60.15
2022-11-30T08:46:55.715Z,60.30
2022-11-30T08:49:38.824Z,59.98
2022-11-30T08:52:18.941Z,60.02
2022-11-30T08:55:07.095Z,60.30
2022-11-30T08:57:45.756Z,60.09
2022-11-30T09:00:23.190Z,59.85
2022-11-30T09:07:05.300Z,60.49
2022-11-30T09:09:36.977Z,59.98
2022-11-30T09:12:07.150Z,60.08
2022-11-30T09:14:37.662Z,59.85
2022-11-30T09:17:19.537Z,60.15
2022-11-30T09:19:51.378Z,59.46
2022-11-30T09:22:23.101Z,59.87
2022-11-30T09:24:55.767Z,59.49
2022-11-30T09:27:30.842Z,59.45
2022-11-30T09:29:59.962Z,59.18
2022-11-30T09:32:32.382Z,59.32
2022-11-30T09:35:03.143Z,59.29
2022-11-30T09:37:50.664Z,59.26
2022-11-30T09:40:19.669Z,59.22
2022-11-30T09:43:00.075Z,59.29
2022-11-30T09:45:43.561Z,59.37
2022-11-30T09:48:31.125Z,59.11
2022-11-30T09:51:01.722Z,59.04
2022-11-30T09:53:41.858Z,59.51
2022-11-30T09:56:21.497Z,59.32
2022-11-30T09:58:56.935Z,59.28
2022-11-30T10:01:41.137Z,59.39
2022-11-30T10:04:18.879Z,59.34
2022-11-30T10:06:56.411Z,59.09
2022-11-30T10:09:34.489Z,58.98
2022-11-30T10:12:08.028Z,59.31
2022-11-30T10:15:18.876Z,58.78
2022-11-30T10:17:54.104Z,59.08
2022-11-30T10:20:44.027Z,58.83
2022-11-30T10:23:41.388Z,59.11
2022-11-30T10:26:23.746Z,58.94
2022-11-30T10:28:56.031Z,58.51
2022-11-30T10:31:35.736Z,58.63
2022-11-30T10:34:15.540Z,58.07
2022-11-30T10:36:48.180Z,57.80
2022-11-30T10:39:21.005Z,58.11
2022-11-30T10:41:54.752Z,57.68
2022-11-30T10:44:26.155Z,57.84
2022-11-30T10:46:58.483Z,57.87
2022-11-30T10:49:30.684Z,57.70
2022-11-30T10:52:03.798Z,57.56
2022-11-30T10:59:13.297Z,57.90
2022-11-30T11:08:19.125Z,57.38
2022-11-30T11:14:37.926Z,57.65
2022-11-30T11:17:22.715Z,57.66
2022-11-30T11:19:51.626Z,57.72
2022-11-30T11:22:27.026Z,57.32
2022-11-30T11:24:58.776Z,57.41
2022-11-30T11:27:30.275Z,57.17
2022-11-30T11:30:14.595Z,57.12
2022-11-30T11:33:01.414Z,57.09
2022-11-30T11:35:40.606Z,57.34
2022-11-30T11:38:32.284Z,57.18
2022-11-30T11:41:11.854Z,57.03
2022-11-30T11:44:01.188Z,57.02
2022-11-30T11:46:33.638Z,56.95
2022-11-30T11:49:18.518Z,56.87
2022-11-30T11:52:12.898Z,56.89
2022-11-30T11:54:53.069Z,57.09
2022-11-30T11:57:37.978Z,56.91
2022-11-30T12:00:25.439Z,56.84
2022-11-30T12:03:12.254Z,56.93
2022-11-30T12:05:50.367Z,56.45
2022-11-30T12:08:30.213Z,56.52
2022-11-30T12:11:05.900Z,56.58
2022-11-30T12:13:43.159Z,56.73
2022-11-30T12:16:37.527Z,56.86
2022-11-30T12:22:35.836Z,57.01
2022-11-30T12:25:25.168Z,57.20
2022-11-30T12:28:08.852Z,56.71
2022-11-30T12:30:57.303Z,56.49
2022-11-30T12:33:38.918Z,56.32
2022-11-30T12:36:12.750Z,56.32
2022-11-30T12:38:47.512Z,56.19
2022-11-30T12:49:16.155Z,56.45
2022-11-30T12:51:46.179Z,56.17
2022-11-30T12:54:18.081Z,56.20
2022-11-30T12:56:47.593Z,56.41
2022-11-30T12:59:20.010Z,56.30
2022-11-30T13:01:53.697Z,56.49
2022-11-30T13:04:25.565Z,56.32
2022-11-30T13:06:54.902Z,56.29
2022-11-30T13:09:26.535Z,56.44
2022-11-30T13:11:58.029Z,56.66
2022-11-30T13:14:26.981Z,56.67
2022-11-30T13:17:02.916Z,56.58
2022-11-30T13:19:41.128Z,56.41
2022-11-30T13:22:11.309Z,56.74
2022-11-30T13:24:44.511Z,56.60
2022-11-30T13:27:18.944Z,56.94
2022-11-30T13:30:03.068Z,56.83
2022-11-30T13:32:57.305Z,56.87
2022-11-30T13:35:59.086Z,56.99
2022-11-30T13:38:38.110Z,57.00
2022-11-30T13:41:13.352Z,57.09
2022-11-30T13:43:45.194Z,57.29
2022-11-30T13:46:16.547Z,57.32
2022-11-30T13:48:47.631Z,57.20
2022-11-30T13:51:31.284Z,57.23
2022-11-30T13:54:28.131Z,57.16
2022-11-30T13:56:57.952Z,57.32
2022-11-30T13:59:40.926Z,57.11
2022-11-30T14:05:46.686Z,57.04
2022-11-30T14:08:38.990Z,57.08
2022-11-30T14:11:41.786Z,56.58
2022-11-30T14:14:45.796Z,56.90
2022-11-30T14:17:22.196Z,56.72
2022-11-30T14:19:52.091Z,56.90
2022-11-30T14:22:20.785Z,56.85
2022-11-30T14:24:49.306Z,56.48
2022-11-30T14:27:19.695Z,56.59
2022-11-30T14:29:53.387Z,56.56
2022-11-30T14:32:29.229Z,56.47
2022-11-30T14:35:03.389Z,56.40
2022-11-30T14:37:33.844Z,56.31
2022-11-30T14:40:03.534Z,56.31
2022-11-30T14:42:32.512Z,56.44
2022-11-30T14:45:03.103Z,56.44
2022-11-30T14:47:33.870Z,56.31
2022-11-30T14:50:06.903Z,56.51
2022-11-30T14:52:46.337Z,56.52
2022-11-30T14:55:19.126Z,56.40
2022-11-30T14:57:53.120Z,56.69
2022-11-30T15:00:41.386Z,56.51
2022-11-30T15:03:20.128Z,56.53
2022-11-30T15:05:51.370Z,56.67
2022-11-30T15:08:19.798Z,56.79
2022-11-30T15:10:47.930Z,56.67
2022-11-30T15:13:18.700Z,56.94
2022-11-30T15:15:57.326Z,56.88
2022-11-30T15:18:25.961Z,56.85
2022-11-30T15:20:58.120Z,57.06
2022-11-30T15:33:12.576Z,57.06
2022-11-30T15:36:13.626Z,56.93
2022-11-30T15:38:34.500Z,57.14
2022-11-30T15:41:05.456Z,57.39
2022-11-30T15:43:38.056Z,57.53
2022-11-30T15:46:07.810Z,57.46
2022-11-30T15:48:39.576Z,57.55
2022-11-30T15:51:10.127Z,57.39
2022-11-30T15:53:50.241Z,57.50
2022-11-30T15:59:47.755Z,57.68
2022-11-30T16:02:29.810Z,58.05
2022-11-30T16:05:27.784Z,58.03
2022-11-30T16:07:57.428Z,58.20
2022-11-30T16:10:26.832Z,58.20
2022-11-30T16:12:55.318Z,58.62
2022-11-30T16:15:25.504Z,58.51
2022-11-30T16:17:54.269Z,58.97
2022-11-30T16:20:22.657Z,58.94
2022-11-30T16:22:52.911Z,58.98
2022-11-30T16:26:43.171Z,58.96
2022-11-30T16:32:49.584Z,59.17
2022-11-30T16:36:12.078Z,59.23
2022-11-30T16:39:40.300Z,59.48
2022-11-30T16:42:16.341Z,59.43
2022-11-30T16:44:51.876Z,59.79
2022-11-30T16:47:21.805Z,59.39
2022-11-30T16:49:51.837Z,59.57
2022-11-30T16:52:22.960Z,59.40
2022-11-30T16:54:56.066Z,59.50
2022-11-30T16:57:30.829Z,59.39
2022-11-30T16:59:59.716Z,59.37
2022-11-30T17:02:29.053Z,59.52
2022-11-30T17:05:00.792Z,59.64
2022-11-30T17:07:33.057Z,59.42
2022-11-30T17:10:04.437Z,59.33
2022-11-30T17:12:38.756Z,59.65
2022-11-30T17:18:02.823Z,59.48
2022-11-30T17:23:41.119Z,59.54
2022-11-30T17:26:12.479Z,59.76
2022-11-30T17:28:42.871Z,59.88
2022-11-30T17:31:12.868Z,60.01
2022-11-30T17:34:04.271Z,59.82
2022-11-30T17:36:48.396Z,59.94
2022-11-30T17:39:18.393Z,59.83
2022-11-30T17:41:56.031Z,59.67
2022-11-30T17:44:29.058Z,59.67
2022-11-30T17:47:05.139Z,59.59
2022-11-30T17:52:46.911Z,59.55
2022-11-30T17:55:33.899Z,59.70
2022-11-30T17:58:04.803Z,59.82
2022-11-30T18:00:44.552Z,59.68
2022-11-30T18:03:15.521Z,59.96
2022-11-30T18:05:49.056Z,59.94
2022-11-30T18:08:26.743Z,59.85
2022-11-30T18:10:58.121Z,59.52
2022-11-30T18:13:35.290Z,60.24
2022-11-30T18:16:16.297Z,59.92
2022-11-30T18:18:48.533Z,60.20
2022-11-30T18:21:18.881Z,59.89
2022-11-30T18:23:49.059Z,59.99
2022-11-30T18:26:25.865Z,60.26
2022-11-30T18:29:03.088Z,60.02
2022-11-30T18:31:37.556Z,60.13
2022-11-30T18:34:09.309Z,60.36
2022-11-30T18:36:43.884Z,60.09
2022-11-30T18:39:13.887Z,60.08
2022-11-30T18:41:43.550Z,60.29
2022-11-30T18:44:30.495Z,60.10
2022-11-30T18:47:01.458Z,60.08
2022-11-30T18:49:29.872Z,60.42
2022-11-30T18:52:11.742Z,60.54
2022-11-30T18:54:47.933Z,60.40
2022-11-30T18:57:33.922Z,60.72
2022-11-30T19:00:15.584Z,60.65
2022-11-30T19:03:05.805Z,60.46
2022-11-30T19:05:36.378Z,60.63
2022-11-30T19:08:15.059Z,60.43
2022-11-30T19:10:51.663Z,60.45
2022-11-30T19:13:34.117Z,60.55
2022-11-30T19:19:19.981Z,60.31
2022-11-30T19:22:06.952Z,60.08
2022-11-30T19:24:44.577Z,60.41
2022-11-30T19:27:43.435Z,60.46
2022-11-30T19:37:47.659Z,60.38
2022-11-30T19:41:11.928Z,60.25
2022-11-30T19:44:22.873Z,60.34
2022-11-30T19:47:18.625Z,60.57
2022-11-30T19:50:12.021Z,60.59
2022-11-30T19:53:06.929Z,60.31
2022-11-30T19:56:05.221Z,60.55
2022-11-30T20:05:03.672Z,60.36
2022-11-30T20:14:05.270Z,60.47
2022-11-30T20:16:51.596Z,60.15
2022-11-30T20:19:32.344Z,60.27
2022-11-30T20:22:41.990Z,60.54
2022-11-30T20:25:32.225Z,60.45
2022-11-30T20:28:09.681Z,60.46
2022-11-30T20:31:15.416Z,60.56
2022-11-30T20:33:49.187Z,60.40
2022-11-30T20:36:35.353Z,60.44
2022-11-30T20:39:08.336Z,60.36
2022-11-30T20:41:54.340Z,60.29
2022-11-30T20:44:37.039Z,60.41
2022-11-30T20:47:13.697Z,60.62
2022-11-30T20:49:47.871Z,60.10
2022-11-30T20:52:32.244Z,60.58
2022-11-30T20:55:01.986Z,60.41
2022-11-30T20:57:32.191Z,60.52
2022-11-30T21:00:11.655Z,60.31
2022-11-30T21:05:40.950Z,60.30
2022-11-30T21:08:12.825Z,60.43
2022-11-30T21:10:44.262Z,60.84
2022-11-30T21:13:13.503Z,60.40
2022-11-30T21:16:05.725Z,60.69
2022-11-30T21:18:39.126Z,60.61
2022-11-30T21:28:55.744Z,60.82
2022-11-30T22:17:21.538Z,60.79
2022-11-30T22:20:09.415Z,61.22
2022-11-30T22:22:41.259Z,60.85
2022-11-30T22:25:50.316Z,61.12
2022-11-30T22:28:31.723Z,60.97
2022-11-30T22:31:08.097Z,60.79
2022-11-30T22:33:43.822Z,61.05
2022-11-30T22:36:18.778Z,60.86
2022-11-30T22:39:01.335Z,60.95
2022-11-30T22:41:32.848Z,60.77
2022-11-30T22:44:17.477Z,60.96
2022-11-30T22:46:51.765Z,60.96
2022-11-30T22:49:30.166Z,60.66
2022-11-30T22:52:02.334Z,60.75
2022-11-30T22:54:31.659Z,60.81
2022-11-30T22:57:01.673Z,60.80
2022-11-30T22:59:30.672Z,60.73
2022-11-30T23:02:18.305Z,60.96
2022-11-30T23:30:01.088Z,61.13
2022-11-30T23:46:18.463Z,61.00
